createdAt,value
2023-01-27T00:00:31.472Z,2.47
2023-01-27T00:03:19.460Z,2.37
2023-01-27T00:05:47.149Z,2.35
2023-01-27T00:08:17.753Z,2.43
2023-01-27T00:10:44.854Z,2.48
2023-01-27T00:13:27.145Z,2.47
2023-01-27T00:15:54.765Z,2.53
2023-01-27T00:18:23.468Z,2.56
2023-01-27T00:21:09.128Z,2.52
2023-01-27T00:23:55.456Z,2.43
2023-01-27T00:26:23.089Z,2.46
2023-01-27T00:28:52.957Z,2.47
2023-01-27T00:31:38.286Z,2.52
2023-01-27T00:34:09.440Z,2.62
2023-01-27T00:36:38.019Z,2.60
2023-01-27T00:39:06.399Z,2.62
2023-01-27T00:41:34.191Z,2.54
2023-01-27T00:44:05.570Z,2.55
2023-01-27T00:46:33.465Z,2.45
2023-01-27T00:49:00.839Z,2.43
2023-01-27T00:51:27.827Z,2.40
2023-01-27T00:53:55.179Z,2.28
2023-01-27T00:56:22.122Z,2.35
2023-01-27T00:58:49.395Z,2.33
2023-01-27T01:04:11.228Z,2.34
2023-01-27T01:06:38.501Z,2.32
2023-01-27T01:09:05.444Z,2.31
2023-01-27T01:11:32.755Z,2.31
2023-01-27T01:13:59.700Z,2.26
2023-01-27T01:16:27.028Z,2.18
2023-01-27T01:18:54.309Z,2.21
2023-01-27T01:21:22.979Z,2.28
2023-01-27T01:23:50.291Z,2.19
2023-01-27T01:26:18.175Z,2.20
2023-01-27T01:28:46.094Z,2.18
2023-01-27T01:31:16.135Z,2.12
2023-01-27T01:33:43.272Z,2.09
2023-01-27T01:36:12.698Z,2.11
2023-01-27T01:38:40.784Z,2.14
2023-01-27T01:41:11.568Z,2.10
2023-01-27T01:43:38.868Z,2.08
2023-01-27T01:46:10.040Z,2.07
2023-01-27T01:48:42.538Z,2.08
2023-01-27T01:51:13.597Z,2.11
2023-01-27T01:53:48.291Z,2.17
2023-01-27T01:56:19.243Z,2.10
2023-01-27T01:58:48.253Z,2.06
2023-01-27T02:01:17.933Z,2.05
2023-01-27T02:03:49.975Z,2.04
2023-01-27T02:06:17.586Z,2.00
2023-01-27T02:08:47.856Z,2.13
2023-01-27T02:11:15.913Z,2.16
2023-01-27T02:13:43.754Z,2.07
2023-01-27T02:16:11.986Z,1.86
2023-01-27T02:18:40.850Z,1.96
2023-01-27T02:21:08.433Z,1.98
2023-01-27T02:24:00.558Z,1.92
2023-01-27T02:26:32.347Z,1.89
2023-01-27T02:29:00.874Z,1.90
2023-01-27T02:31:28.135Z,1.89
2023-01-27T02:33:59.172Z,1.90
2023-01-27T02:36:27.822Z,1.92
2023-01-27T02:38:57.306Z,1.92
2023-01-27T02:41:30.924Z,1.91
2023-01-27T02:44:00.954Z,1.92
2023-01-27T02:46:28.415Z,1.93
2023-01-27T02:48:55.826Z,1.96
2023-01-27T02:51:23.266Z,1.96
2023-01-27T02:53:50.434Z,1.98
2023-01-27T02:56:17.497Z,1.95
2023-01-27T02:58:44.554Z,1.91
2023-01-27T03:01:13.231Z,2.00
2023-01-27T03:03:47.558Z,2.02
2023-01-27T03:06:15.191Z,2.09
2023-01-27T03:08:42.697Z,2.11
2023-01-27T03:11:10.041Z,2.03
2023-01-27T03:13:37.701Z,1.97
2023-01-27T03:16:26.831Z,2.04
2023-01-27T03:18:56.721Z,1.95
2023-01-27T03:21:24.061Z,1.87
2023-01-27T03:23:51.031Z,1.79
2023-01-27T03:26:18.227Z,1.89
2023-01-27T03:29:05.341Z,1.85
2023-01-27T03:31:32.550Z,1.82
2023-01-27T03:34:01.053Z,1.84
2023-01-27T03:36:46.812Z,1.88
2023-01-27T03:39:32.089Z,1.80
2023-01-27T03:42:17.821Z,1.84
2023-01-27T03:45:03.250Z,1.80
2023-01-27T03:47:30.796Z,1.71
2023-01-27T03:49:59.169Z,1.76
2023-01-27T03:52:26.865Z,1.82
2023-01-27T03:54:53.706Z,1.87
2023-01-27T03:57:20.921Z,1.86
2023-01-27T03:59:47.840Z,1.88
2023-01-27T04:02:35.168Z,1.88
2023-01-27T04:05:22.436Z,1.83
2023-01-27T04:07:49.555Z,1.75
2023-01-27T04:10:22.108Z,1.80
2023-01-27T04:12:52.219Z,1.74
2023-01-27T04:15:19.626Z,1.74
2023-01-27T04:17:46.961Z,1.73
2023-01-27T04:20:15.382Z,1.75
2023-01-27T04:22:43.643Z,1.78
2023-01-27T04:25:13.742Z,1.77
2023-01-27T04:27:41.438Z,1.81
2023-01-27T04:30:14.647Z,1.81
2023-01-27T04:32:45.703Z,1.87
2023-01-27T04:35:13.028Z,1.81
2023-01-27T04:37:41.943Z,1.83
2023-01-27T04:40:10.819Z,1.79
2023-01-27T04:42:37.971Z,1.77
2023-01-27T04:45:05.600Z,1.87
2023-01-27T04:47:32.804Z,1.95
2023-01-27T04:50:00.011Z,1.91
2023-01-27T04:52:27.513Z,1.88
2023-01-27T04:54:55.792Z,1.87
2023-01-27T04:57:23.071Z,1.89
2023-01-27T04:59:50.188Z,1.86
2023-01-27T05:02:17.370Z,1.93
2023-01-27T05:04:44.358Z,1.98
2023-01-27T05:07:11.571Z,1.97
2023-01-27T05:09:39.443Z,1.99
2023-01-27T05:12:08.163Z,1.98
2023-01-27T05:14:35.006Z,2.00
2023-01-27T05:17:02.186Z,1.98
2023-01-27T05:19:29.170Z,1.95
2023-01-27T05:21:56.448Z,1.97
2023-01-27T05:24:23.382Z,1.97
2023-01-27T05:26:50.574Z,1.96
2023-01-27T05:29:18.857Z,1.96
2023-01-27T05:31:46.173Z,1.97
2023-01-27T05:34:13.305Z,2.01
2023-01-27T05:36:40.444Z,2.04
2023-01-27T05:39:10.161Z,2.03
2023-01-27T05:41:37.831Z,1.97
2023-01-27T05:44:05.194Z,2.05
2023-01-27T05:46:33.928Z,2.04
2023-01-27T05:49:04.266Z,2.04
2023-01-27T05:51:33.513Z,2.05
2023-01-27T05:54:01.128Z,2.11
2023-01-27T05:56:28.621Z,2.65
2023-01-27T05:58:56.882Z,3.01
2023-01-27T06:01:26.659Z,3.21
2023-01-27T06:03:55.688Z,3.27
2023-01-27T06:06:24.885Z,2.62
2023-01-27T06:08:51.870Z,1.90
2023-01-27T06:11:21.127Z,1.52
2023-01-27T06:13:48.566Z,1.07
2023-01-27T06:16:20.672Z,0.85
2023-01-27T06:18:48.310Z,0.75
2023-01-27T06:21:17.736Z,0.68
2023-01-27T06:23:44.876Z,0.65
2023-01-27T06:26:13.787Z,0.57
2023-01-27T06:28:40.928Z,0.65
2023-01-27T06:31:09.818Z,0.57
2023-01-27T06:33:37.236Z,0.78
2023-01-27T06:36:06.899Z,0.77
2023-01-27T06:38:35.830Z,1.00
2023-01-27T06:41:03.583Z,1.36
2023-01-27T06:43:30.930Z,1.54
2023-01-27T06:45:58.268Z,1.65
2023-01-27T06:48:26.542Z,1.77
2023-01-27T06:50:54.125Z,1.92
2023-01-27T06:53:21.575Z,1.98
2023-01-27T06:55:55.770Z,2.07
2023-01-27T06:58:22.889Z,2.14
2023-01-27T07:00:50.172Z,2.17
2023-01-27T07:03:17.205Z,2.20
2023-01-27T07:05:44.558Z,2.14
2023-01-27T07:08:11.466Z,2.15
2023-01-27T07:10:39.403Z,2.22
2023-01-27T07:13:09.108Z,2.11
2023-01-27T07:15:36.711Z,2.18
2023-01-27T07:18:04.429Z,2.28
2023-01-27T07:20:32.305Z,2.35
2023-01-27T07:23:00.168Z,2.41
2023-01-27T07:25:28.677Z,2.43
2023-01-27T07:27:57.250Z,2.45
2023-01-27T07:30:26.017Z,2.52
2023-01-27T07:32:54.433Z,2.56
2023-01-27T07:35:21.938Z,2.67
2023-01-27T07:37:48.777Z,2.69
2023-01-27T07:40:16.812Z,2.67
2023-01-27T07:42:43.799Z,2.71
2023-01-27T07:45:11.222Z,2.67
2023-01-27T07:47:40.085Z,2.73
2023-01-27T07:50:07.730Z,2.82
2023-01-27T07:52:34.718Z,2.78
2023-01-27T07:55:01.935Z,2.83
2023-01-27T07:57:28.895Z,2.83
2023-01-27T07:59:56.668Z,2.91
2023-01-27T08:02:24.131Z,2.98
2023-01-27T08:04:53.936Z,2.92
2023-01-27T08:07:21.070Z,2.93
2023-01-27T08:09:48.341Z,2.87
2023-01-27T08:12:15.323Z,2.76
2023-01-27T08:14:42.609Z,2.73
2023-01-27T08:17:09.539Z,2.82
2023-01-27T08:19:36.780Z,2.86
2023-01-27T08:22:05.180Z,2.92
2023-01-27T08:24:32.335Z,2.97
2023-01-27T08:26:59.170Z,2.99
2023-01-27T08:29:26.494Z,3.01
2023-01-27T08:31:53.413Z,3.11
2023-01-27T08:34:21.042Z,3.10
2023-01-27T08:36:47.993Z,3.03
2023-01-27T08:39:16.884Z,3.05
2023-01-27T08:41:43.810Z,3.17
2023-01-27T08:44:11.080Z,3.19
2023-01-27T08:46:38.039Z,3.14
2023-01-27T08:49:05.619Z,3.17
2023-01-27T08:51:34.609Z,3.27
2023-01-27T08:54:02.030Z,3.39
2023-01-27T08:56:30.845Z,3.43
2023-01-27T08:58:58.173Z,3.48
2023-01-27T09:01:25.296Z,3.43
2023-01-27T09:03:52.848Z,3.26
2023-01-27T09:06:21.799Z,3.28
2023-01-27T09:09:11.217Z,3.39
2023-01-27T09:11:41.662Z,3.39
2023-01-27T09:14:09.371Z,3.40
2023-01-27T09:16:36.730Z,3.29
2023-01-27T09:19:04.244Z,3.24
2023-01-27T09:21:31.761Z,3.28
2023-01-27T09:23:59.156Z,3.32
2023-01-27T09:26:26.162Z,3.19
2023-01-27T09:28:54.671Z,3.20
2023-01-27T09:31:21.715Z,3.27
2023-01-27T09:33:49.070Z,3.29
2023-01-27T09:36:19.151Z,3.37
2023-01-27T09:38:50.220Z,3.42
2023-01-27T09:41:46.998Z,3.44
2023-01-27T09:44:41.299Z,3.52
2023-01-27T09:47:23.805Z,3.34
2023-01-27T09:50:12.934Z,3.25
2023-01-27T09:53:00.023Z,3.26
2023-01-27T09:55:38.614Z,3.30
2023-01-27T09:58:15.606Z,3.34
2023-01-27T10:00:57.260Z,3.47
2023-01-27T10:03:38.126Z,3.41
2023-01-27T10:06:39.187Z,3.46
2023-01-27T10:09:35.630Z,3.53
2023-01-27T10:12:13.273Z,3.56
2023-01-27T10:14:50.485Z,3.61
2023-01-27T10:17:31.297Z,3.58
2023-01-27T10:20:12.746Z,3.67
2023-01-27T10:22:53.096Z,3.80
2023-01-27T10:25:31.711Z,3.80
2023-01-27T10:28:10.098Z,3.68
2023-01-27T10:30:38.283Z,3.71
2023-01-27T10:33:16.469Z,3.88
2023-01-27T10:35:51.263Z,4.04
2023-01-27T10:38:32.268Z,4.14
2023-01-27T10:41:07.604Z,4.10
2023-01-27T10:43:53.725Z,4.19
2023-01-27T10:46:34.414Z,4.22
2023-01-27T10:49:06.534Z,4.21
2023-01-27T10:51:38.228Z,4.71
2023-01-27T10:54:13.363Z,5.04
2023-01-27T10:56:45.855Z,5.29
2023-01-27T10:59:25.009Z,5.41
2023-01-27T11:02:01.717Z,4.32
2023-01-27T11:04:42.958Z,3.43
2023-01-27T11:07:18.245Z,2.94
2023-01-27T11:09:53.834Z,2.66
2023-01-27T11:12:26.518Z,2.44
2023-01-27T11:14:54.212Z,2.28
2023-01-27T11:17:29.092Z,2.18
2023-01-27T11:20:15.281Z,2.18
2023-01-27T11:22:51.080Z,2.26
2023-01-27T11:25:27.302Z,2.24
2023-01-27T11:28:05.529Z,2.43
2023-01-27T11:30:39.268Z,2.43
2023-01-27T11:33:17.812Z,2.45
2023-01-27T11:35:53.832Z,2.54
2023-01-27T11:38:22.696Z,2.51
2023-01-27T11:40:51.672Z,2.45
2023-01-27T11:43:21.219Z,2.37
2023-01-27T11:45:50.015Z,2.37
2023-01-27T11:48:21.759Z,2.35
2023-01-27T11:50:51.841Z,2.37
2023-01-27T11:53:25.428Z,2.37
2023-01-27T11:55:58.292Z,2.49
2023-01-27T11:58:30.607Z,2.74
2023-01-27T12:01:01.843Z,3.02
2023-01-27T12:03:43.614Z,2.99
2023-01-27T12:06:17.369Z,3.00
2023-01-27T12:08:46.378Z,3.10
2023-01-27T12:11:24.690Z,3.15
2023-01-27T12:13:54.135Z,3.10
2023-01-27T12:16:23.629Z,3.21
2023-01-27T12:19:02.623Z,3.19
2023-01-27T12:21:47.140Z,3.18
2023-01-27T12:24:24.477Z,3.15
2023-01-27T12:26:53.562Z,3.18
2023-01-27T12:29:26.225Z,3.18
2023-01-27T12:31:55.724Z,3.07
2023-01-27T12:34:25.857Z,3.10
2023-01-27T12:36:56.076Z,3.01
2023-01-27T12:39:42.057Z,3.06
2023-01-27T12:42:36.063Z,3.08
2023-01-27T12:45:19.227Z,3.03
2023-01-27T12:47:56.891Z,2.73
2023-01-27T12:50:26.265Z,2.30
2023-01-27T12:53:15.067Z,2.02
2023-01-27T12:55:46.116Z,1.90
2023-01-27T12:58:33.900Z,1.77
2023-01-27T13:01:03.097Z,1.67
2023-01-27T13:03:31.232Z,1.65
2023-01-27T13:06:00.231Z,1.61
2023-01-27T13:08:33.620Z,1.60
2023-01-27T13:11:02.827Z,1.60
2023-01-27T13:13:31.128Z,1.54
2023-01-27T13:16:08.338Z,1.72
2023-01-27T13:18:38.922Z,1.93
2023-01-27T13:21:14.302Z,2.20
2023-01-27T13:23:44.541Z,2.43
2023-01-27T13:26:17.132Z,2.55
2023-01-27T13:28:53.317Z,2.68
2023-01-27T13:31:34.203Z,2.79
2023-01-27T13:34:06.245Z,2.95
2023-01-27T13:36:40.873Z,3.04
2023-01-27T13:39:17.633Z,3.02
2023-01-27T13:41:50.067Z,3.00
2023-01-27T13:44:25.799Z,2.96
2023-01-27T13:46:55.200Z,3.01
2023-01-27T13:49:32.031Z,3.04
2023-01-27T13:51:58.951Z,3.08
2023-01-27T13:54:30.141Z,3.24
2023-01-27T13:57:18.659Z,3.17
2023-01-27T13:59:57.881Z,3.23
2023-01-27T14:02:59.213Z,3.21
2023-01-27T14:05:39.572Z,3.19
2023-01-27T14:08:20.745Z,3.25
2023-01-27T14:11:04.279Z,3.12
2023-01-27T14:13:47.414Z,3.09
2023-01-27T14:16:22.963Z,3.19
2023-01-27T14:21:56.048Z,3.01
2023-01-27T14:24:36.097Z,2.93
2023-01-27T14:27:13.117Z,2.95
2023-01-27T14:29:48.777Z,2.90
2023-01-27T14:32:26.754Z,2.86
2023-01-27T14:35:09.898Z,2.74
2023-01-27T14:37:45.343Z,2.75
2023-01-27T14:40:17.969Z,2.73
2023-01-27T14:43:07.433Z,2.64
2023-01-27T14:45:37.138Z,2.62
2023-01-27T14:48:14.598Z,2.57
2023-01-27T14:50:48.576Z,2.74
2023-01-27T14:53:32.589Z,2.89
2023-01-27T14:56:07.457Z,2.92
2023-01-27T14:58:46.674Z,2.90
2023-01-27T15:01:24.720Z,2.93
2023-01-27T15:04:16.673Z,3.00
2023-01-27T15:06:47.583Z,3.02
2023-01-27T15:09:34.566Z,3.01
2023-01-27T15:12:22.615Z,3.00
2023-01-27T15:15:21.619Z,3.04
2023-01-27T15:18:06.690Z,3.04
2023-01-27T15:20:48.773Z,2.96
2023-01-27T15:23:53.586Z,2.92
2023-01-27T15:26:25.493Z,2.98
2023-01-27T15:28:53.509Z,2.80
2023-01-27T15:31:25.464Z,2.77
2023-01-27T15:33:55.729Z,2.74
2023-01-27T15:36:35.630Z,2.85
2023-01-27T15:39:16.704Z,2.83
2023-01-27T15:42:09.961Z,2.80
2023-01-27T15:44:42.494Z,2.82
2023-01-27T15:47:14.906Z,2.91
2023-01-27T15:49:46.685Z,2.95
2023-01-27T15:52:27.563Z,2.92
2023-01-27T15:54:57.757Z,2.89
2023-01-27T15:57:29.911Z,2.89
2023-01-27T16:00:04.719Z,2.88
2023-01-27T16:02:37.925Z,2.89
2023-01-27T16:05:23.921Z,2.83
2023-01-27T16:07:54.262Z,2.82
2023-01-27T16:10:24.679Z,2.81
2023-01-27T16:13:22.333Z,2.78
2023-01-27T16:16:25.174Z,2.75
2023-01-27T16:19:01.257Z,2.79
2023-01-27T16:21:43.802Z,2.75
2023-01-27T16:24:23.782Z,2.78
2023-01-27T16:26:56.556Z,2.75
2023-01-27T16:29:35.113Z,2.77
2023-01-27T16:32:07.097Z,2.76
2023-01-27T16:34:40.062Z,2.76
2023-01-27T16:37:22.327Z,2.75
2023-01-27T16:39:56.379Z,2.70
2023-01-27T16:42:31.109Z,2.71
2023-01-27T16:45:01.655Z,2.74
2023-01-27T16:47:37.506Z,2.67
2023-01-27T16:50:07.105Z,2.66
2023-01-27T16:52:42.236Z,2.67
2023-01-27T16:55:20.438Z,2.68
2023-01-27T16:57:47.708Z,2.68
2023-01-27T17:00:20.270Z,2.74
2023-01-27T17:02:48.225Z,2.75
2023-01-27T17:05:17.967Z,2.66
2023-01-27T17:08:01.875Z,2.62
2023-01-27T17:10:34.743Z,2.60
2023-01-27T17:13:03.615Z,2.62
2023-01-27T17:15:35.514Z,2.73
2023-01-27T17:18:08.006Z,2.72
2023-01-27T17:20:39.455Z,2.75
2023-01-27T17:23:07.293Z,2.70
2023-01-27T17:25:37.636Z,2.67
2023-01-27T17:28:11.621Z,2.66
2023-01-27T17:30:42.096Z,2.69
2023-01-27T17:33:17.082Z,2.67
2023-01-27T17:35:50.788Z,2.71
2023-01-27T17:38:24.252Z,2.83
2023-01-27T17:40:53.967Z,2.89
2023-01-27T17:43:28.847Z,2.97
2023-01-27T17:46:13.358Z,2.82
2023-01-27T17:48:47.074Z,2.83
2023-01-27T17:51:21.435Z,2.78
2023-01-27T17:53:49.569Z,2.66
2023-01-27T17:56:21.446Z,2.66
2023-01-27T17:58:52.950Z,2.53
2023-01-27T18:01:26.092Z,2.71
2023-01-27T18:03:56.848Z,2.73
2023-01-27T18:06:29.588Z,2.83
2023-01-27T18:09:02.361Z,2.78
2023-01-27T18:11:31.634Z,2.79
2023-01-27T18:14:01.753Z,2.88
2023-01-27T18:16:29.927Z,2.86
2023-01-27T18:19:10.047Z,2.88
2023-01-27T18:21:41.133Z,2.97
2023-01-27T18:24:20.263Z,2.89
2023-01-27T18:26:48.691Z,2.86
2023-01-27T18:29:24.656Z,2.94
2023-01-27T18:31:54.908Z,3.15
2023-01-27T18:34:28.525Z,3.31
2023-01-27T18:36:58.683Z,3.47
2023-01-27T18:39:34.432Z,3.61
2023-01-27T18:42:02.299Z,3.44
2023-01-27T18:44:35.839Z,3.21
2023-01-27T18:47:26.453Z,3.11
2023-01-27T18:50:00.435Z,3.03
2023-01-27T18:52:29.794Z,3.04
2023-01-27T18:55:01.079Z,2.97
2023-01-27T18:57:28.394Z,2.99
2023-01-27T18:59:56.401Z,2.88
2023-01-27T19:02:25.148Z,2.94
2023-01-27T19:04:52.933Z,2.88
2023-01-27T19:07:19.871Z,2.93
2023-01-27T19:09:53.295Z,2.87
2023-01-27T19:12:20.227Z,2.78
2023-01-27T19:14:48.773Z,2.76
2023-01-27T19:17:23.166Z,2.76
2023-01-27T19:19:50.532Z,2.75
2023-01-27T19:22:19.796Z,2.82
2023-01-27T19:24:50.480Z,2.85
2023-01-27T19:27:19.311Z,2.81
2023-01-27T19:29:46.411Z,2.84
2023-01-27T19:32:14.611Z,2.87
2023-01-27T19:34:41.893Z,2.91
2023-01-27T19:37:16.968Z,2.96
2023-01-27T19:39:45.086Z,2.96
2023-01-27T19:42:14.793Z,2.93
2023-01-27T19:44:42.403Z,2.94
2023-01-27T19:47:11.966Z,2.96
2023-01-27T19:49:41.563Z,2.90
2023-01-27T19:52:10.127Z,2.88
2023-01-27T19:54:37.975Z,2.90
2023-01-27T19:57:06.027Z,2.89
2023-01-27T19:59:34.977Z,2.94
2023-01-27T20:02:01.959Z,2.98
2023-01-27T20:04:29.623Z,3.00
2023-01-27T20:06:57.743Z,3.01
2023-01-27T20:09:25.016Z,3.05
2023-01-27T20:11:52.071Z,3.10
2023-01-27T20:14:20.387Z,3.13
2023-01-27T20:16:48.743Z,3.10
2023-01-27T20:19:16.561Z,3.10
2023-01-27T20:21:45.664Z,3.05
2023-01-27T20:24:15.735Z,3.02
2023-01-27T20:26:42.789Z,2.99
2023-01-27T20:29:10.169Z,2.99
2023-01-27T20:31:39.233Z,3.04
2023-01-27T20:34:08.236Z,2.97
2023-01-27T20:36:36.338Z,2.99
2023-01-27T20:39:04.517Z,2.99
2023-01-27T20:41:31.529Z,2.97
2023-01-27T20:44:00.469Z,2.90
2023-01-27T20:46:28.526Z,2.91
2023-01-27T20:48:56.421Z,2.96
2023-01-27T20:51:25.102Z,3.05
2023-01-27T20:53:52.299Z,3.11
2023-01-27T20:56:21.027Z,3.11
2023-01-27T20:58:48.966Z,3.09
2023-01-27T21:01:17.681Z,3.05
2023-01-27T21:03:45.079Z,3.09
2023-01-27T21:06:13.951Z,3.04
2023-01-27T21:08:47.535Z,3.06
2023-01-27T21:11:20.544Z,3.08
2023-01-27T21:13:48.683Z,3.10
2023-01-27T21:16:15.647Z,3.12
2023-01-27T21:18:44.152Z,3.10
2023-01-27T21:21:22.125Z,3.07
2023-01-27T21:23:50.808Z,3.07
2023-01-27T21:26:17.714Z,3.10
2023-01-27T21:28:45.049Z,3.10
2023-01-27T21:31:16.238Z,3.11
2023-01-27T21:33:45.736Z,3.10
2023-01-27T21:36:12.964Z,3.10
2023-01-27T21:38:40.468Z,3.09
2023-01-27T21:41:11.709Z,3.03
2023-01-27T21:43:57.858Z,3.04
2023-01-27T21:46:24.971Z,3.02
2023-01-27T21:48:52.417Z,3.05
2023-01-27T21:51:19.429Z,3.04
2023-01-27T21:53:46.660Z,3.10
2023-01-27T21:56:14.960Z,3.10
2023-01-27T21:58:42.367Z,3.13
2023-01-27T22:01:10.801Z,3.15
2023-01-27T22:03:38.528Z,3.18
2023-01-27T22:06:06.913Z,3.17
2023-01-27T22:08:34.462Z,3.07
2023-01-27T22:11:04.788Z,3.19
2023-01-27T22:13:33.823Z,3.28
2023-01-27T22:16:01.065Z,3.28
2023-01-27T22:18:28.353Z,3.20
2023-01-27T22:20:55.564Z,3.12
2023-01-27T22:23:25.073Z,3.18
2023-01-27T22:25:52.433Z,3.21
2023-01-27T22:28:19.970Z,3.24
2023-01-27T22:30:48.746Z,3.27
2023-01-27T22:33:16.190Z,3.30
2023-01-27T22:35:43.309Z,3.31
2023-01-27T22:38:10.634Z,3.29
2023-01-27T22:40:37.474Z,3.31
2023-01-27T22:43:10.038Z,3.32
2023-01-27T22:45:38.270Z,3.34
2023-01-27T22:48:08.803Z,3.37
2023-01-27T22:50:36.289Z,3.33
2023-01-27T22:53:05.373Z,3.33
2023-01-27T22:55:32.347Z,3.34
2023-01-27T22:57:59.472Z,3.36
2023-01-27T23:00:26.442Z,3.32
2023-01-27T23:02:54.345Z,3.48
2023-01-27T23:05:22.695Z,3.49
2023-01-27T23:07:49.847Z,3.48
2023-01-27T23:10:17.417Z,3.47
2023-01-27T23:12:45.035Z,3.47
2023-01-27T23:15:12.461Z,3.45
2023-01-27T23:17:40.081Z,3.44
2023-01-27T23:20:08.593Z,3.43
2023-01-27T23:22:37.353Z,3.42
2023-01-27T23:25:05.079Z,3.37
2023-01-27T23:27:32.724Z,3.35
2023-01-27T23:29:59.714Z,3.37
2023-01-27T23:32:26.977Z,3.37
2023-01-27T23:34:53.901Z,3.35
2023-01-27T23:37:21.142Z,3.38
2023-01-27T23:39:49.826Z,3.40
2023-01-27T23:42:17.705Z,3.44
2023-01-27T23:44:44.795Z,3.47
2023-01-27T23:47:12.828Z,3.51
2023-01-27T23:49:39.917Z,3.53
2023-01-27T23:52:07.521Z,3.51
2023-01-27T23:54:34.634Z,3.53
2023-01-27T23:57:03.329Z,3.54
2023-01-27T23:59:30.286Z,3.55
